Time,TemperatureF,DewpointF,PressureIn,WindDirection,WindDirectionDegrees,WindSpeedMPH,WindSpeedGustMPH,Humidity,HourlyPrecipIn,Conditions,Clouds,dailyrainin,SolarRadiationWatts/m^2,SoftwareType,DateUTC
2013-06-12 00:00:00,70.6,66.0,29.85,South,177,0.9,0.9,85,0.00,,,0.22,0,TxWx,2013-06-12 05:00:00,
2013-06-12 00:05:00,70.5,66.0,29.86,NE,49,2.1,2.4,86,0.00,,,0.22,0,TxWx,2013-06-12 05:05:00,
2013-06-12 00:10:00,70.3,66.0,29.86,SE,124,2.1,2.1,87,0.00,,,0.22,0,TxWx,2013-06-12 05:10:00,
2013-06-12 00:15:00,70.1,66.0,29.85,SSW,212,1.5,1.8,87,0.00,,,0.22,0,TxWx,2013-06-12 05:15:00,
2013-06-12 00:20:00,70.0,66.0,29.85,NE,41,3.9,3.9,87,0.00,,,0.22,0,TxWx,2013-06-12 05:20:00,
2013-06-12 00:25:00,70.3,66.0,29.87,NNE,27,3.6,4.2,88,0.00,,,0.22,0,TxWx,2013-06-12 05:25:00,
2013-06-12 00:31:00,70.4,66.0,29.86,SSW,194,1.8,1.8,87,0.00,,,0.22,0,TxWx,2013-06-12 05:31:00,
2013-06-12 00:36:00,70.4,66.0,29.85,SSE,168,1.8,1.8,87,0.00,,,0.22,0,TxWx,2013-06-12 05:36:00,
2013-06-12 00:41:00,70.4,66.0,29.86,ENE,70,0.9,0.9,87,0.00,,,0.22,0,TxWx,2013-06-12 05:41:00,
2013-06-12 00:46:00,70.4,66.0,29.86,NE,46,3.3,3.3,87,0.00,,,0.22,0,TxWx,2013-06-12 05:46:00,
2013-06-12 00:51:00,70.5,66.0,29.87,NNE,14,2.7,2.7,88,0.00,,,0.22,0,TxWx,2013-06-12 05:51:00,
2013-06-12 00:56:00,70.6,67.0,29.87,NNE,23,0.0,0.0,87,0.00,,,0.22,0,TxWx,2013-06-12 05:56:00,
2013-06-12 01:01:00,70.6,67.0,29.87,NNE,14,0.3,0.3,87,0.00,,,0.00,0,TxWx,2013-06-12 06:01:00,
2013-06-12 01:06:00,70.6,67.0,29.87,North,355,1.2,1.5,87,0.00,,,0.00,0,TxWx,2013-06-12 06:06:00,
2013-06-12 01:12:00,70.5,66.0,29.88,NNE,17,1.8,1.8,87,0.00,,,0.00,0,TxWx,2013-06-12 06:12:00,
2013-06-12 01:17:00,70.3,66.0,29.87,NNE,20,0.0,0.3,88,0.00,,,0.00,0,TxWx,2013-06-12 06:17:00,
2013-06-12 01:22:00,70.2,66.0,29.88,NNE,26,0.0,0.0,88,0.00,,,0.00,0,TxWx,2013-06-12 06:22:00,
2013-06-12 01:27:00,70.1,66.0,29.87,NNE,31,0.0,0.0,88,0.00,,,0.00,0,TxWx,2013-06-12 06:27:00,
2013-06-12 01:32:00,70.0,66.0,29.87,NNE,31,0.6,0.6,88,0.00,,,0.00,0,TxWx,2013-06-12 06:32:00,
2013-06-12 01:37:00,69.9,66.0,29.87,NE,46,0.0,0.3,88,0.00,,,0.00,0,TxWx,2013-06-12 06:37:00,
2013-06-12 01:42:00,69.8,66.0,29.87,SE,145,0.6,0.6,89,0.00,,,0.00,0,TxWx,2013-06-12 06:42:00,
2013-06-12 01:47:00,69.8,67.0,29.86,South,178,0.6,0.6,89,0.00,,,0.00,0,TxWx,2013-06-12 06:47:00,
2013-06-12 01:53:00,69.7,67.0,29.86,SSW,192,0.6,0.6,89,0.00,,,0.00,0,TxWx,2013-06-12 06:53:00,
2013-06-12 01:58:00,69.7,67.0,29.87,SSW,206,0.0,0.0,89,0.00,,,0.00,0,TxWx,2013-06-12 06:58:00,
2013-06-12 02:03:00,69.7,67.0,29.87,SSW,204,0.6,0.6,89,0.00,,,0.00,0,TxWx,2013-06-12 07:03:00,
2013-06-12 02:08:00,69.7,67.0,29.88,SSW,211,0.9,0.9,90,0.00,,,0.00,0,TxWx,2013-06-12 07:08:00,
2013-06-12 02:13:00,69.7,67.0,29.88,North,2,0.6,0.6,90,0.00,,,0.00,0,TxWx,2013-06-12 07:13:00,
2013-06-12 02:18:00,69.8,67.0,29.88,North,2,0.0,0.0,90,0.00,,,0.00,0,TxWx,2013-06-12 07:18:00,
2013-06-12 02:23:00,69.8,67.0,29.89,North,355,0.3,0.6,90,0.00,,,0.00,0,TxWx,2013-06-12 07:23:00,
2013-06-12 02:29:00,69.8,67.0,29.89,North,359,0.3,0.3,90,0.00,,,0.00,0,TxWx,2013-06-12 07:29:00,
2013-06-12 02:34:00,69.8,67.0,29.89,North,7,0.3,0.3,90,0.00,,,0.00,0,TxWx,2013-06-12 07:34:00,
2013-06-12 02:39:00,69.7,67.0,29.88,North,358,0.3,0.3,90,0.00,,,0.00,0,TxWx,2013-06-12 07:39:00,
2013-06-12 02:44:00,69.7,67.0,29.89,North,5,2.7,2.7,90,0.00,,,0.00,0,TxWx,2013-06-12 07:44:00,
2013-06-12 02:49:00,69.7,67.0,29.88,NNE,19,5.4,5.4,90,0.00,,,0.00,0,TxWx,2013-06-12 07:49:00,
2013-06-12 02:54:00,69.8,67.0,29.88,North,358,0.0,0.0,90,0.00,,,0.00,0,TxWx,2013-06-12 07:54:00,
2013-06-12 03:00:00,69.9,67.0,29.89,NE,34,0.3,0.3,90,0.00,,,0.00,0,TxWx,2013-06-12 08:00:00,
2013-06-12 03:05:00,69.9,67.0,29.89,NNE,12,0.0,0.0,90,0.00,,,0.00,0,TxWx,2013-06-12 08:05:00,
2013-06-12 03:10:00,69.8,67.0,29.88,NNE,12,0.0,0.0,90,0.00,,,0.00,0,TxWx,2013-06-12 08:10:00,
2013-06-12 03:15:00,69.7,67.0,29.88,NNE,12,0.6,0.6,90,0.00,,,0.00,0,TxWx,2013-06-12 08:15:00,
2013-06-12 03:20:00,69.6,67.0,29.89,NE,37,2.1,2.4,90,0.00,,,0.00,0,TxWx,2013-06-12 08:20:00,
2013-06-12 03:25:00,69.6,67.0,29.89,NE,43,2.1,2.1,90,0.00,,,0.00,0,TxWx,2013-06-12 08:25:00,
2013-06-12 03:30:00,69.6,67.0,29.89,NE,45,1.2,1.5,90,0.00,,,0.00,0,TxWx,2013-06-12 08:30:00,
2013-06-12 03:36:00,69.6,67.0,29.89,NE,37,0.6,0.6,90,0.00,,,0.00,0,TxWx,2013-06-12 08:36:00,
2013-06-12 03:41:00,69.5,67.0,29.89,East,83,0.9,0.9,90,0.00,,,0.00,0,TxWx,2013-06-12 08:41:00,
2013-06-12 03:46:00,69.4,66.0,29.89,SSE,149,0.9,0.9,91,0.00,,,0.00,0,TxWx,2013-06-12 08:46:00,
2013-06-12 03:51:00,69.4,66.0,29.89,SSE,152,0.0,0.0,91,0.00,,,0.00,0,TxWx,2013-06-12 08:51:00,
2013-06-12 03:56:00,69.3,66.0,29.89,SSE,152,0.0,0.0,91,0.00,,,0.00,0,TxWx,2013-06-12 08:56:00,
2013-06-12 04:02:00,69.1,66.0,29.89,South,173,1.8,1.8,91,0.00,,,0.00,0,TxWx,2013-06-12 09:02:00,
2013-06-12 04:07:00,68.9,66.0,29.88,SSE,157,0.3,0.6,91,0.00,,,0.00,0,TxWx,2013-06-12 09:07:00,
2013-06-12 04:12:00,68.9,66.0,29.88,SSE,151,0.9,0.9,91,0.00,,,0.00,0,TxWx,2013-06-12 09:12:00,
2013-06-12 04:17:00,68.7,66.0,29.88,SSE,151,0.3,0.6,91,0.00,,,0.00,0,TxWx,2013-06-12 09:17:00,
2013-06-12 04:22:00,68.5,65.0,29.87,South,171,0.9,0.9,92,0.00,,,0.00,0,TxWx,2013-06-12 09:22:00,
2013-06-12 04:28:00,68.3,65.0,29.87,South,175,3.0,3.0,92,0.00,,,0.00,0,TxWx,2013-06-12 09:28:00,
2013-06-12 04:33:00,68.1,66.0,29.86,East,100,1.8,1.8,92,0.00,,,0.00,0,TxWx,2013-06-12 09:33:00,
2013-06-12 04:38:00,68.0,66.0,29.86,ENE,77,0.3,0.3,92,0.00,,,0.00,0,TxWx,2013-06-12 09:38:00,
2013-06-12 04:43:00,68.0,66.0,29.86,SE,128,1.2,1.2,93,0.00,,,0.00,0,TxWx,2013-06-12 09:43:00,
2013-06-12 04:48:00,67.8,66.0,29.86,SE,127,0.6,0.6,93,0.00,,,0.00,0,TxWx,2013-06-12 09:48:00,
2013-06-12 04:54:00,67.8,66.0,29.86,South,189,1.8,2.1,93,0.00,,,0.00,0,TxWx,2013-06-12 09:54:00,
2013-06-12 04:59:00,67.8,66.0,29.86,South,172,1.2,1.2,93,0.00,,,0.00,0,TxWx,2013-06-12 09:59:00,
2013-06-12 05:04:00,67.7,66.0,29.86,South,173,0.9,0.9,93,0.00,,,0.00,0,TxWx,2013-06-12 10:04:00,
2013-06-12 05:09:00,67.8,66.0,29.87,SE,133,0.3,0.3,93,0.00,,,0.00,1,TxWx,2013-06-12 10:09:00,
2013-06-12 05:14:00,67.8,66.0,29.86,South,185,2.7,2.7,93,0.00,,,0.00,2,TxWx,2013-06-12 10:14:00,
2013-06-12 05:20:00,67.8,66.0,29.86,South,181,1.2,1.2,93,0.00,,,0.00,5,TxWx,2013-06-12 10:20:00,
2013-06-12 05:25:00,67.7,66.0,29.86,SW,221,2.1,2.1,93,0.00,,,0.00,11,TxWx,2013-06-12 10:25:00,
2013-06-12 05:30:00,67.7,66.0,29.88,SW,233,1.2,1.2,93,0.00,,,0.00,15,TxWx,2013-06-12 10:30:00,
2013-06-12 05:35:00,67.9,66.0,29.88,SSW,196,2.1,2.7,94,0.00,,,0.00,17,TxWx,2013-06-12 10:35:00,
2013-06-12 05:40:00,67.9,66.0,29.87,SSW,196,0.6,0.9,93,0.00,,,0.00,18,TxWx,2013-06-12 10:40:00,
2013-06-12 05:45:00,67.9,66.0,29.88,West,269,1.2,1.2,94,0.00,,,0.00,20,TxWx,2013-06-12 10:45:00,
2013-06-12 05:50:00,68.0,66.0,29.89,North,11,0.6,0.6,94,0.00,,,0.00,23,TxWx,2013-06-12 10:50:00,
2013-06-12 05:56:00,68.1,66.0,29.88,NNE,12,0.0,0.0,94,0.00,,,0.00,31,TxWx,2013-06-12 10:56:00,
2013-06-12 06:01:00,68.1,66.0,29.88,South,171,0.6,0.9,94,0.00,,,0.00,92,TxWx,2013-06-12 11:01:00,
2013-06-12 06:06:00,68.3,66.0,29.89,WSW,240,2.4,2.4,93,0.00,,,0.00,126,TxWx,2013-06-12 11:06:00,
2013-06-12 06:11:00,68.8,67.0,29.90,North,9,0.0,0.0,93,0.00,,,0.00,138,TxWx,2013-06-12 11:11:00,
2013-06-12 06:16:00,69.0,67.0,29.90,WNW,288,0.6,0.6,93,0.00,,,0.00,156,TxWx,2013-06-12 11:16:00,
2013-06-12 06:21:00,69.3,67.0,29.89,WNW,285,0.0,0.0,93,0.00,,,0.00,104,TxWx,2013-06-12 11:21:00,
2013-06-12 06:26:00,69.6,68.0,29.89,SSW,211,0.0,0.0,92,0.00,,,0.00,180,TxWx,2013-06-12 11:26:00,
2013-06-12 06:31:00,70.1,67.0,29.89,SSE,167,0.3,0.6,92,0.00,,,0.00,203,TxWx,2013-06-12 11:31:00,
2013-06-12 06:37:00,70.2,67.0,29.90,SSW,213,2.4,2.4,90,0.00,,,0.00,118,TxWx,2013-06-12 11:37:00,
2013-06-12 06:42:00,70.6,68.0,29.90,SSW,213,2.4,2.4,90,0.00,,,0.00,269,TxWx,2013-06-12 11:42:00,
2013-06-12 06:47:00,70.7,68.0,29.90,West,274,1.2,1.5,89,0.00,,,0.00,116,TxWx,2013-06-12 11:47:00,
2013-06-12 06:52:00,70.9,67.0,29.90,South,186,0.6,0.6,89,0.00,,,0.00,108,TxWx,2013-06-12 11:52:00,
2013-06-12 06:58:00,71.1,67.0,29.90,SW,217,0.0,0.0,89,0.00,,,0.00,100,TxWx,2013-06-12 11:58:00,
2013-06-12 07:03:00,71.2,67.0,29.90,NE,35,2.7,2.7,89,0.00,,,0.00,119,TxWx,2013-06-12 12:03:00,
2013-06-12 07:08:00,71.5,67.0,29.90,NNE,29,1.5,1.8,88,0.00,,,0.00,130,TxWx,2013-06-12 12:08:00,
2013-06-12 07:13:00,71.8,68.0,29.90,ENE,75,0.0,0.3,88,0.00,,,0.00,155,TxWx,2013-06-12 12:13:00,
2013-06-12 07:18:00,72.4,68.0,29.90,East,83,0.6,0.6,88,0.00,,,0.00,210,TxWx,2013-06-12 12:18:00,
2013-06-12 07:24:00,72.8,69.0,29.91,WNW,297,0.0,0.0,87,0.00,,,0.00,168,TxWx,2013-06-12 12:24:00,
2013-06-12 07:29:00,73.0,69.0,29.92,WNW,291,1.5,1.5,86,0.00,,,0.00,145,TxWx,2013-06-12 12:29:00,
2013-06-12 07:34:00,73.1,68.0,29.91,West,280,2.1,2.1,85,0.00,,,0.00,142,TxWx,2013-06-12 12:34:00,
2013-06-12 07:39:00,73.4,68.0,29.91,ENE,64,0.9,1.2,85,0.00,,,0.00,144,TxWx,2013-06-12 12:39:00,
2013-06-12 07:44:00,73.7,69.0,29.91,NNE,15,0.3,0.3,85,0.00,,,0.00,148,TxWx,2013-06-12 12:44:00,
2013-06-12 07:49:00,73.7,69.0,29.90,ENE,67,1.8,1.8,84,0.00,,,0.00,107,TxWx,2013-06-12 12:49:00,
2013-06-12 07:54:00,73.6,69.0,29.91,SW,226,1.8,1.8,84,0.00,,,0.00,110,TxWx,2013-06-12 12:54:00,
2013-06-12 07:59:00,73.5,68.0,29.93,West,276,4.8,4.8,84,0.00,,,0.00,143,TxWx,2013-06-12 12:59:00,
2013-06-12 08:05:00,73.8,69.0,29.94,NNW,339,0.3,0.6,85,0.00,,,0.00,103,TxWx,2013-06-12 13:05:00,
2013-06-12 08:10:00,73.9,69.0,29.92,NE,36,3.3,3.9,84,0.00,,,0.00,111,TxWx,2013-06-12 13:10:00,
2013-06-12 08:15:00,73.9,69.0,29.93,North,11,1.2,1.2,85,0.00,,,0.00,115,TxWx,2013-06-12 13:15:00,
2013-06-12 08:20:00,73.9,69.0,29.92,NE,47,1.8,1.8,84,0.00,,,0.00,109,TxWx,2013-06-12 13:20:00,
2013-06-12 08:25:00,73.9,69.0,29.91,ENE,57,1.8,1.8,85,0.00,,,0.00,96,TxWx,2013-06-12 13:25:00,
2013-06-12 08:30:00,73.9,69.0,29.92,East,97,1.8,1.8,85,0.00,,,0.00,90,TxWx,2013-06-12 13:30:00,
2013-06-12 08:36:00,73.9,69.0,29.91,ENE,69,1.8,1.8,85,0.00,,,0.00,113,TxWx,2013-06-12 13:36:00,
2013-06-12 08:41:00,73.9,69.0,29.92,NW,326,0.3,0.3,85,0.00,,,0.00,126,TxWx,2013-06-12 13:41:00,
2013-06-12 08:46:00,73.8,69.0,29.92,West,269,2.4,3.0,85,0.00,,,0.00,128,TxWx,2013-06-12 13:46:00,
2013-06-12 08:51:00,73.8,69.0,29.92,WNW,285,3.0,3.0,85,0.00,,,0.00,119,TxWx,2013-06-12 13:51:00,
2013-06-12 08:56:00,74.2,69.0,29.93,NW,312,0.0,0.0,85,0.00,,,0.00,144,TxWx,2013-06-12 13:56:00,
2013-06-12 09:01:00,74.6,70.0,29.92,WNW,289,0.3,0.3,85,0.00,,,0.00,160,TxWx,2013-06-12 14:01:00,
2013-06-12 09:06:00,74.7,70.0,29.92,North,6,5.1,5.1,85,0.00,,,0.00,165,TxWx,2013-06-12 14:06:00,
2013-06-12 09:11:00,74.4,69.0,29.91,NE,34,3.0,3.3,84,0.00,,,0.00,198,TxWx,2013-06-12 14:11:00,
2013-06-12 09:16:00,74.2,69.0,29.91,WNW,298,1.2,1.2,85,0.00,,,0.00,238,TxWx,2013-06-12 14:16:00,
2013-06-12 09:22:00,74.5,70.0,29.91,NNE,19,4.8,4.8,84,0.00,,,0.00,259,TxWx,2013-06-12 14:22:00,
2013-06-12 09:27:00,74.6,70.0,29.92,NW,319,1.5,2.1,84,0.00,,,0.00,247,TxWx,2013-06-12 14:27:00,
2013-06-12 09:32:00,74.4,68.0,29.91,NNE,17,4.5,4.5,82,0.00,,,0.00,185,TxWx,2013-06-12 14:32:00,
2013-06-12 09:37:00,74.5,69.0,29.91,NE,42,2.4,2.4,82,0.00,,,0.00,182,TxWx,2013-06-12 14:37:00,
2013-06-12 09:42:00,74.6,69.0,29.90,NE,50,0.6,0.9,81,0.00,,,0.00,190,TxWx,2013-06-12 14:42:00,
2013-06-12 09:48:00,74.6,68.0,29.90,SSE,158,1.2,1.2,80,0.00,,,0.00,195,TxWx,2013-06-12 14:48:00,
2013-06-12 09:53:00,74.8,68.0,29.90,SSW,194,3.6,3.6,80,0.00,,,0.00,202,TxWx,2013-06-12 14:53:00,
2013-06-12 09:58:00,75.0,68.0,29.89,South,170,6.0,6.6,80,0.00,,,0.00,205,TxWx,2013-06-12 14:58:00,
2013-06-12 10:03:00,75.2,68.0,29.88,SSW,194,0.9,0.9,80,0.00,,,0.00,229,TxWx,2013-06-12 15:03:00,
2013-06-12 10:08:00,75.2,68.0,29.89,South,179,6.6,6.6,79,0.00,,,0.00,271,TxWx,2013-06-12 15:08:00,
2013-06-12 10:13:00,75.5,68.0,29.89,SSE,155,3.0,3.3,79,0.00,,,0.00,322,TxWx,2013-06-12 15:13:00,
2013-06-12 10:18:00,75.7,69.0,29.89,WSW,241,2.7,2.7,80,0.00,,,0.00,374,TxWx,2013-06-12 15:18:00,
2013-06-12 10:24:00,76.0,69.0,29.89,SSW,204,2.4,2.4,79,0.00,,,0.00,339,TxWx,2013-06-12 15:24:00,
2013-06-12 10:29:00,76.3,68.0,29.89,SSW,201,1.8,2.1,76,0.00,,,0.00,395,TxWx,2013-06-12 15:29:00,
2013-06-12 10:34:00,76.8,68.0,29.89,SSE,167,1.5,1.8,75,0.00,,,0.00,443,TxWx,2013-06-12 15:34:00,
2013-06-12 10:39:00,77.3,68.0,29.89,South,185,2.1,2.1,75,0.00,,,0.00,349,TxWx,2013-06-12 15:39:00,
2013-06-12 10:44:00,77.4,68.0,29.88,SE,127,1.8,1.8,75,0.00,,,0.00,284,TxWx,2013-06-12 15:44:00,
2013-06-12 10:50:00,77.4,68.0,29.88,ESE,105,2.4,2.7,74,0.00,,,0.00,292,TxWx,2013-06-12 15:50:00,
2013-06-12 10:55:00,77.2,69.0,29.87,SSE,162,6.6,6.6,76,0.00,,,0.00,327,TxWx,2013-06-12 15:55:00,
2013-06-12 11:00:00,77.2,69.0,29.86,SE,140,3.9,3.9,76,0.00,,,0.00,327,TxWx,2013-06-12 16:00:00,
2013-06-12 11:06:00,77.0,69.0,29.85,SSE,150,2.4,2.7,77,0.00,,,0.00,316,TxWx,2013-06-12 16:06:00,
2013-06-12 11:11:00,77.4,69.0,29.85,SE,135,1.8,1.8,77,0.00,,,0.00,294,TxWx,2013-06-12 16:11:00,
2013-06-12 11:16:00,77.5,70.0,29.86,SSW,211,4.2,4.2,77,0.00,,,0.00,286,TxWx,2013-06-12 16:16:00,
2013-06-12 11:22:00,77.5,69.0,29.85,SSE,163,0.6,0.9,77,0.00,,,0.00,290,TxWx,2013-06-12 16:22:00,
2013-06-12 11:27:00,77.7,70.0,29.84,SSE,159,4.2,4.2,77,0.00,,,0.00,317,TxWx,2013-06-12 16:27:00,
2013-06-12 11:32:00,78.0,70.0,29.85,SSE,163,3.6,4.5,78,0.00,,,0.00,382,TxWx,2013-06-12 16:32:00,
2013-06-12 11:37:00,77.9,70.0,29.83,ESE,107,3.3,3.3,78,0.00,,,0.00,437,TxWx,2013-06-12 16:37:00,
2013-06-12 11:43:00,77.8,71.0,29.83,SSE,165,4.5,4.5,79,0.00,,,0.00,469,TxWx,2013-06-12 16:43:00,
2013-06-12 11:48:00,78.1,71.0,29.82,South,191,5.7,5.7,79,0.00,,,0.00,573,TxWx,2013-06-12 16:48:00,
2013-06-12 11:53:00,78.2,71.0,29.81,WSW,256,6.9,7.5,78,0.00,,,0.00,415,TxWx,2013-06-12 16:53:00,
2013-06-12 11:59:00,78.3,71.0,29.80,SSW,210,7.5,8.4,78,0.00,,,0.00,361,TxWx,2013-06-12 16:59:00,
2013-06-12 12:04:00,78.5,71.0,29.79,SSW,192,6.0,6.0,78,0.00,,,0.00,267,TxWx,2013-06-12 17:04:00,
2013-06-12 12:09:00,78.5,70.0,29.78,South,177,6.6,6.9,78,0.00,,,0.00,222,TxWx,2013-06-12 17:09:00,
2013-06-12 12:14:00,78.5,72.0,29.77,SSW,193,9.6,9.6,79,0.00,,,0.00,193,TxWx,2013-06-12 17:14:00,
2013-06-12 12:19:00,78.7,72.0,29.79,SSW,201,5.7,8.1,79,0.00,,,0.00,319,TxWx,2013-06-12 17:19:00,
2013-06-12 12:25:00,78.9,72.0,29.76,East,86,6.6,8.4,79,0.00,,,0.00,363,TxWx,2013-06-12 17:25:00,
2013-06-12 12:30:00,79.5,72.0,29.76,South,174,9.9,9.9,79,0.00,,,0.00,422,TxWx,2013-06-12 17:30:00,
2013-06-12 12:35:00,79.8,72.0,29.76,South,170,6.3,7.5,78,0.00,,,0.00,261,TxWx,2013-06-12 17:35:00,
2013-06-12 12:40:00,79.9,72.0,29.76,SW,222,10.5,10.5,78,0.00,,,0.00,227,TxWx,2013-06-12 17:40:00,
2013-06-12 12:46:00,80.0,72.0,29.75,WSW,248,5.4,6.0,78,0.00,,,0.00,234,TxWx,2013-06-12 17:46:00,
2013-06-12 12:51:00,80.2,72.0,29.76,SW,221,9.0,9.0,77,0.00,,,0.00,210,TxWx,2013-06-12 17:51:00,
2013-06-12 12:56:00,80.2,72.0,29.74,South,180,6.6,7.2,77,0.00,,,0.00,286,TxWx,2013-06-12 17:56:00,
2013-06-12 13:01:00,80.8,73.0,29.75,SSE,148,1.5,1.8,76,0.00,,,0.00,356,TxWx,2013-06-12 18:01:00,
2013-06-12 13:06:00,81.0,72.0,29.75,South,178,5.4,5.4,74,0.00,,,0.00,490,TxWx,2013-06-12 18:06:00,
2013-06-12 13:12:00,81.3,71.0,29.75,SSW,206,15.0,17.4,72,0.00,,,0.00,377,TxWx,2013-06-12 18:12:00,
2013-06-12 13:17:00,81.8,72.0,29.75,South,178,3.9,3.9,71,0.00,,,0.00,455,TxWx,2013-06-12 18:17:00,
2013-06-12 13:22:00,82.0,71.0,29.75,South,187,6.0,6.3,69,0.00,,,0.00,531,TxWx,2013-06-12 18:22:00,
2013-06-12 13:28:00,82.4,71.0,29.74,South,180,4.8,5.1,70,0.00,,,0.00,355,TxWx,2013-06-12 18:28:00,
2013-06-12 13:33:00,82.5,71.0,29.74,SSW,210,7.2,8.1,70,0.00,,,0.00,278,TxWx,2013-06-12 18:33:00,
2013-06-12 13:38:00,82.8,71.0,29.74,WSW,237,8.7,8.7,68,0.00,,,0.00,373,TxWx,2013-06-12 18:38:00,
2013-06-12 13:43:00,83.5,72.0,29.75,SW,221,6.6,6.6,68,0.00,,,0.00,494,TxWx,2013-06-12 18:43:00,
2013-06-12 13:48:00,83.7,70.0,29.76,WSW,240,7.5,9.0,64,0.00,,,0.00,386,TxWx,2013-06-12 18:48:00,
2013-06-12 13:53:00,84.1,70.0,29.78,WNW,292,3.9,3.9,63,0.00,,,0.00,306,TxWx,2013-06-12 18:53:00,
2013-06-12 13:58:00,84.4,70.0,29.79,NW,309,0.3,0.3,63,0.00,,,0.00,338,TxWx,2013-06-12 18:58:00,
2013-06-12 14:04:00,84.5,69.0,29.78,WSW,242,6.0,6.3,62,0.00,,,0.00,430,TxWx,2013-06-12 19:04:00,
2013-06-12 14:09:00,85.2,70.0,29.79,WSW,255,6.6,6.6,61,0.00,,,0.00,441,TxWx,2013-06-12 19:09:00,
2013-06-12 14:14:00,85.5,71.0,29.81,West,270,5.4,5.7,61,0.00,,,0.00,1057,TxWx,2013-06-12 19:14:00,
2013-06-12 14:19:00,85.6,70.0,29.81,West,262,4.2,4.8,59,0.00,,,0.00,346,TxWx,2013-06-12 19:19:00,
2013-06-12 14:25:00,85.5,70.0,29.79,West,269,7.2,7.5,59,0.00,,,0.00,344,TxWx,2013-06-12 19:25:00,
2013-06-12 14:30:00,86.1,70.0,29.81,West,273,4.5,4.8,60,0.00,,,0.00,956,TxWx,2013-06-12 19:30:00,
2013-06-12 14:35:00,86.1,68.0,29.81,West,259,10.5,11.1,56,0.00,,,0.00,731,TxWx,2013-06-12 19:35:00,
2013-06-12 14:40:00,86.3,68.0,29.81,West,260,10.2,10.2,56,0.00,,,0.00,369,TxWx,2013-06-12 19:40:00,
2013-06-12 14:45:00,86.2,69.0,29.81,WNW,286,4.5,4.5,58,0.00,,,0.00,252,TxWx,2013-06-12 19:45:00,
2013-06-12 14:50:00,86.3,69.0,29.80,WNW,300,6.0,6.6,57,0.00,,,0.00,761,TxWx,2013-06-12 19:50:00,
2013-06-12 14:55:00,86.4,69.0,29.80,WNW,293,6.6,6.6,57,0.00,,,0.00,318,TxWx,2013-06-12 19:55:00,
2013-06-12 15:00:00,86.2,69.0,29.80,WSW,250,6.9,6.9,58,0.00,,,0.00,356,TxWx,2013-06-12 20:00:00,
2013-06-12 15:06:00,86.5,70.0,29.79,NW,305,5.1,5.4,57,0.00,,,0.00,460,TxWx,2013-06-12 20:06:00,
2013-06-12 15:11:00,86.5,69.0,29.80,West,280,9.3,9.3,57,0.00,,,0.00,1052,TxWx,2013-06-12 20:11:00,
2013-06-12 15:16:00,87.2,70.0,29.79,NNE,22,2.4,2.4,58,0.00,,,0.00,371,TxWx,2013-06-12 20:16:00,
2013-06-12 15:21:00,87.2,70.0,29.79,NNW,335,2.4,3.3,58,0.00,,,0.00,275,TxWx,2013-06-12 20:21:00,
2013-06-12 15:26:00,87.2,71.0,29.79,WSW,241,1.8,1.8,59,0.00,,,0.00,371,TxWx,2013-06-12 20:26:00,
2013-06-12 15:31:00,87.0,70.0,29.78,SW,221,3.9,3.9,58,0.00,,,0.00,204,TxWx,2013-06-12 20:31:00,
2013-06-12 15:36:00,86.7,71.0,29.76,SW,219,1.8,2.4,59,0.00,,,0.00,218,TxWx,2013-06-12 20:36:00,
2013-06-12 15:42:00,86.8,71.0,29.76,WSW,239,0.6,0.6,59,0.00,,,0.00,173,TxWx,2013-06-12 20:42:00,
2013-06-12 15:47:00,86.2,69.0,29.77,West,271,4.5,4.5,58,0.00,,,0.00,180,TxWx,2013-06-12 20:47:00,
2013-06-12 15:52:00,86.3,70.0,29.78,SW,223,1.8,1.8,60,0.00,,,0.00,280,TxWx,2013-06-12 20:52:00,
2013-06-12 15:57:00,86.5,71.0,29.78,WNW,282,0.9,0.9,59,0.00,,,0.00,306,TxWx,2013-06-12 20:57:00,
2013-06-12 16:02:00,87.4,71.0,29.77,SW,235,0.9,0.9,60,0.00,,,0.00,351,TxWx,2013-06-12 21:02:00,
2013-06-12 16:08:00,88.2,70.0,29.76,NE,34,2.4,2.4,56,0.00,,,0.00,510,TxWx,2013-06-12 21:08:00,
2013-06-12 16:13:00,86.8,72.0,29.76,NNW,343,3.0,3.9,62,0.00,,,0.00,453,TxWx,2013-06-12 21:13:00,
2013-06-12 16:18:00,86.5,73.0,29.76,NNE,21,6.0,6.3,63,0.00,,,0.00,799,TxWx,2013-06-12 21:18:00,
2013-06-12 16:23:00,85.9,72.0,29.76,NE,45,8.1,8.1,64,0.00,,,0.00,234,TxWx,2013-06-12 21:23:00,
2013-06-12 16:29:00,85.2,72.0,29.75,NNE,31,8.4,8.4,65,0.00,,,0.00,240,TxWx,2013-06-12 21:29:00,
2013-06-12 16:34:00,85.1,72.0,29.75,NNE,25,5.1,5.1,66,0.00,,,0.00,262,TxWx,2013-06-12 21:34:00,
2013-06-12 16:39:00,85.0,72.0,29.74,ENE,58,7.5,7.5,66,0.00,,,0.00,260,TxWx,2013-06-12 21:39:00,
2013-06-12 16:44:00,84.9,72.0,29.74,NE,43,9.9,9.9,65,0.00,,,0.00,217,TxWx,2013-06-12 21:44:00,
2013-06-12 16:49:00,85.2,72.0,29.74,NE,47,6.0,6.3,66,0.00,,,0.00,604,TxWx,2013-06-12 21:49:00,
2013-06-12 16:54:00,85.7,73.0,29.74,North,352,6.0,6.6,66,0.00,,,0.00,225,TxWx,2013-06-12 21:54:00,
2013-06-12 17:00:00,85.3,72.0,29.74,NE,49,5.7,6.9,66,0.00,,,0.00,249,TxWx,2013-06-12 22:00:00,
2013-06-12 17:05:00,85.3,73.0,29.73,NE,47,4.8,4.8,67,0.00,,,0.00,184,TxWx,2013-06-12 22:05:00,
2013-06-12 17:10:00,85.3,72.0,29.73,ENE,69,4.8,6.0,66,0.00,,,0.00,212,TxWx,2013-06-12 22:10:00,
2013-06-12 17:15:00,85.4,72.0,29.71,NE,53,4.2,4.5,66,0.00,,,0.00,151,TxWx,2013-06-12 22:15:00,
2013-06-12 17:20:00,85.5,73.0,29.71,ENE,72,3.6,4.2,66,0.00,,,0.00,148,TxWx,2013-06-12 22:20:00,
2013-06-12 17:25:00,85.5,73.0,29.71,East,96,7.5,7.5,66,0.00,,,0.00,141,TxWx,2013-06-12 22:25:00,
2013-06-12 17:30:00,85.5,73.0,29.71,NE,43,3.9,4.5,66,0.00,,,0.00,121,TxWx,2013-06-12 22:30:00,
2013-06-12 17:35:00,85.4,72.0,29.71,NE,54,5.4,5.4,65,0.00,,,0.00,94,TxWx,2013-06-12 22:35:00,
2013-06-12 17:41:00,85.3,72.0,29.71,SE,125,2.1,2.4,66,0.00,,,0.00,60,TxWx,2013-06-12 22:41:00,
2013-06-12 17:46:00,85.2,72.0,29.72,ENE,68,4.5,4.5,65,0.00,,,0.00,44,TxWx,2013-06-12 22:46:00,
2013-06-12 17:51:00,85.0,72.0,29.72,ENE,75,4.2,4.5,66,0.00,,,0.00,35,TxWx,2013-06-12 22:51:00,
2013-06-12 17:56:00,84.8,72.0,29.71,East,82,2.7,3.3,66,0.00,,,0.00,29,TxWx,2013-06-12 22:56:00,
2013-06-12 18:02:00,84.7,73.0,29.70,East,83,2.1,2.1,67,0.00,,,0.00,21,TxWx,2013-06-12 23:02:00,
2013-06-12 18:07:00,84.5,73.0,29.70,NE,48,3.3,3.6,67,0.00,,,0.00,14,TxWx,2013-06-12 23:07:00,
2013-06-12 18:12:00,84.3,72.0,29.69,East,79,5.1,6.9,67,0.00,,,0.00,9,TxWx,2013-06-12 23:12:00,
2013-06-12 18:17:00,84.2,72.0,29.69,ENE,68,5.4,6.0,67,0.00,,,0.00,4,TxWx,2013-06-12 23:17:00,
2013-06-12 18:23:00,84.0,72.0,29.68,ENE,72,5.4,6.9,68,0.00,,,0.00,2,TxWx,2013-06-12 23:23:00,
2013-06-12 18:28:00,83.9,72.0,29.68,East,90,4.5,4.5,68,0.00,,,0.00,1,TxWx,2013-06-12 23:28:00,
2013-06-12 18:33:00,83.8,72.0,29.69,East,79,6.6,6.6,68,0.00,,,0.00,1,TxWx,2013-06-12 23:33:00,
2013-06-12 18:38:00,83.8,72.0,29.68,ENE,71,4.5,4.5,68,0.00,,,0.00,1,TxWx,2013-06-12 23:38:00,
2013-06-12 18:43:00,83.6,72.0,29.67,East,80,4.8,4.8,68,0.00,,,0.00,0,TxWx,2013-06-12 23:43:00,
2013-06-12 18:49:00,83.5,72.0,29.67,ESE,105,4.8,4.8,68,0.00,,,0.00,0,TxWx,2013-06-12 23:49:00,
2013-06-12 18:54:00,83.0,72.0,29.67,SE,145,5.4,5.4,69,0.00,,,0.00,0,TxWx,2013-06-12 23:54:00,
2013-06-12 18:59:00,81.9,72.0,29.67,ENE,72,5.7,6.3,72,0.00,,,0.00,0,TxWx,2013-06-12 23:59:00,
2013-06-12 19:04:00,81.7,72.0,29.65,NE,48,9.9,9.9,73,0.00,,,0.00,0,TxWx,2013-06-13 00:04:00,
2013-06-12 19:09:00,81.8,72.0,29.66,NNE,23,6.6,6.9,73,0.00,,,0.00,0,TxWx,2013-06-13 00:09:00,
2013-06-12 19:14:00,74.6,66.0,29.72,West,271,20.4,20.4,73,0.00,,,0.01,0,TxWx,2013-06-13 00:14:00,
2013-06-12 19:19:00,71.8,67.0,29.76,NNW,341,6.3,6.3,85,0.00,,,0.27,0,TxWx,2013-06-13 00:19:00,
2013-06-12 19:24:00,69.2,65.0,29.77,NNW,338,6.6,6.6,86,2.70,,,0.71,0,TxWx,2013-06-13 00:24:00,
2013-06-12 19:29:00,69.5,66.0,29.72,NE,35,15.0,15.0,91,2.70,,,0.90,0,TxWx,2013-06-13 00:29:00,
2013-06-12 19:34:00,69.7,67.0,29.68,NE,34,16.2,16.2,92,3.24,,,1.01,0,TxWx,2013-06-13 00:34:00,
2013-06-12 19:40:00,69.2,66.0,29.68,NNE,31,13.5,13.5,90,3.24,,,1.01,0,TxWx,2013-06-13 00:40:00,
2013-06-12 19:45:00,69.1,65.0,29.68,NE,51,14.1,15.6,87,0.18,,,1.02,0,TxWx,2013-06-13 00:45:00,
2013-06-12 19:50:00,69.6,66.0,29.70,ENE,78,1.5,1.5,87,0.18,,,1.03,0,TxWx,2013-06-13 00:50:00,
2013-06-12 19:56:00,69.5,65.0,29.70,SSW,211,3.0,3.3,88,0.06,,,1.06,0,TxWx,2013-06-13 00:56:00,
2013-06-12 20:01:00,69.1,65.0,29.66,SE,143,6.0,7.2,89,0.06,,,1.13,0,TxWx,2013-06-13 01:01:00,
2013-06-12 20:06:00,68.8,66.0,29.62,SE,126,6.3,8.1,89,0.66,,,1.16,0,TxWx,2013-06-13 01:06:00,
2013-06-12 20:11:00,69.0,66.0,29.64,East,80,2.1,2.7,89,0.66,,,1.17,0,TxWx,2013-06-13 01:11:00,
2013-06-12 20:16:00,69.3,66.0,29.64,SE,139,3.0,3.0,89,0.18,,,1.17,0,TxWx,2013-06-13 01:16:00,
2013-06-12 20:21:00,69.4,66.0,29.66,South,188,2.7,3.0,90,0.18,,,1.17,0,TxWx,2013-06-13 01:21:00,
2013-06-12 20:26:00,69.5,67.0,29.67,WSW,255,5.4,5.4,90,0.00,,,1.17,0,TxWx,2013-06-13 01:26:00,
2013-06-12 20:31:00,69.7,67.0,29.73,West,277,4.8,5.4,91,0.00,,,1.18,0,TxWx,2013-06-13 01:31:00,
2013-06-12 20:36:00,69.8,67.0,29.73,WSW,255,16.8,17.4,89,0.06,,,1.28,0,TxWx,2013-06-13 01:36:00,
2013-06-12 20:42:00,69.6,67.0,29.68,South,182,3.6,3.6,90,0.72,,,1.30,0,TxWx,2013-06-13 01:42:00,
2013-06-12 20:47:00,69.5,67.0,29.63,SE,137,6.0,6.9,91,0.72,,,1.31,0,TxWx,2013-06-13 01:47:00,
2013-06-12 20:52:00,69.5,66.0,29.66,SSW,195,4.5,4.5,91,0.06,,,1.31,0,TxWx,2013-06-13 01:52:00,
2013-06-12 20:57:00,69.5,66.0,29.66,SE,133,1.8,2.1,92,0.06,,,1.31,0,TxWx,2013-06-13 01:57:00,
2013-06-12 21:03:00,69.5,68.0,29.67,SSW,194,2.4,2.4,92,0.06,,,1.32,0,TxWx,2013-06-13 02:03:00,
2013-06-12 21:08:00,69.4,67.0,29.64,SE,138,3.6,3.6,92,0.06,,,1.33,0,TxWx,2013-06-13 02:08:00,
2013-06-12 21:13:00,69.3,67.0,29.63,SW,236,5.1,6.0,92,0.12,,,1.34,0,TxWx,2013-06-13 02:13:00,
2013-06-12 21:18:00,69.1,67.0,29.62,West,277,3.9,3.9,92,0.12,,,1.34,0,TxWx,2013-06-13 02:18:00,
2013-06-12 21:23:00,69.0,67.0,29.63,SW,233,3.6,3.6,92,0.00,,,1.34,0,TxWx,2013-06-13 02:23:00,
2013-06-12 21:28:00,68.9,66.0,29.64,SSE,164,2.4,3.0,92,0.00,,,1.39,0,TxWx,2013-06-13 02:28:00,
2013-06-12 21:34:00,69.1,66.0,29.66,NNE,28,4.8,4.8,92,0.36,,,1.40,0,TxWx,2013-06-13 02:34:00,
2013-06-12 21:39:00,69.2,67.0,29.68,NNE,15,5.4,5.7,92,0.36,,,1.40,0,TxWx,2013-06-13 02:39:00,
2013-06-12 21:44:00,69.3,66.0,29.65,East,85,3.0,3.0,92,0.00,,,1.40,0,TxWx,2013-06-13 02:44:00,
2013-06-12 21:49:00,69.2,66.0,29.66,South,181,3.0,3.0,92,0.00,,,1.40,0,TxWx,2013-06-13 02:49:00,
2013-06-12 21:54:00,69.2,66.0,29.65,WNW,297,0.9,0.9,92,0.00,,,1.40,0,TxWx,2013-06-13 02:54:00,
2013-06-12 22:00:00,69.2,66.0,29.64,NNE,16,1.5,1.5,92,0.00,,,1.40,0,TxWx,2013-06-13 03:00:00,
2013-06-12 22:05:00,69.2,67.0,29.65,SSW,197,0.6,0.6,92,0.00,,,1.40,0,TxWx,2013-06-13 03:05:00,
2013-06-12 22:10:00,69.2,67.0,29.67,WSW,252,1.5,1.5,92,0.00,,,1.40,0,TxWx,2013-06-13 03:10:00,
2013-06-12 22:15:00,69.4,67.0,29.68,WNW,293,1.2,1.5,93,0.00,,,1.40,0,TxWx,2013-06-13 03:15:00,
2013-06-12 22:20:00,69.1,67.0,29.69,WNW,290,2.7,2.7,92,0.00,,,1.40,0,TxWx,2013-06-13 03:20:00,
2013-06-12 22:26:00,68.6,67.0,29.68,North,358,7.5,10.2,92,0.00,,,1.40,0,TxWx,2013-06-13 03:26:00,
2013-06-12 22:31:00,67.9,65.0,29.68,NE,52,18.0,18.3,92,0.00,,,1.40,0,TxWx,2013-06-13 03:31:00,
2013-06-12 22:36:00,67.5,64.0,29.67,NNE,14,13.2,15.6,91,0.00,,,1.40,0,TxWx,2013-06-13 03:36:00,
2013-06-12 22:41:00,67.0,64.0,29.67,NNE,17,14.1,14.4,91,0.00,,,1.40,0,TxWx,2013-06-13 03:41:00,
2013-06-12 22:46:00,66.6,64.0,29.67,NE,55,14.7,14.7,91,0.00,,,1.40,0,TxWx,2013-06-13 03:46:00,
2013-06-12 22:51:00,66.3,63.0,29.66,NNE,28,10.5,10.8,91,0.00,,,1.40,0,TxWx,2013-06-13 03:51:00,
2013-06-12 22:57:00,66.0,63.0,29.67,NNE,30,6.9,7.5,91,0.00,,,1.41,0,TxWx,2013-06-13 03:57:00,
2013-06-12 23:01:00,65.7,63.0,29.65,ENE,68,8.4,9.6,91,0.00,,,1.41,0,TxWx,2013-06-13 04:01:00,
2013-06-12 23:02:00,65.7,63.0,29.65,ENE,78,5.4,7.5,92,0.06,,,1.41,0,TxWx,2013-06-13 04:02:00,
2013-06-12 23:03:00,65.6,63.0,29.65,ENE,68,7.5,7.5,92,0.06,,,1.41,0,TxWx,2013-06-13 04:03:00,
2013-06-12 23:04:00,65.6,63.0,29.66,ENE,78,9.6,9.6,92,0.06,,,1.41,0,TxWx,2013-06-13 04:04:00,
2013-06-12 23:09:00,65.5,64.0,29.67,NNE,16,12.3,13.2,92,0.06,,,1.41,0,TxWx,2013-06-13 04:09:00,
2013-06-12 23:14:00,65.5,63.0,29.65,East,85,8.7,8.7,92,0.00,,,1.41,0,TxWx,2013-06-13 04:14:00,
2013-06-12 23:19:00,65.6,64.0,29.66,NE,37,4.2,4.2,92,0.00,,,1.41,0,TxWx,2013-06-13 04:19:00,
2013-06-12 23:25:00,65.7,63.0,29.67,NE,39,5.4,5.4,92,0.00,,,1.41,0,TxWx,2013-06-13 04:25:00,
2013-06-12 23:30:00,65.7,63.0,29.67,NNE,30,3.0,3.3,92,0.00,,,1.41,0,TxWx,2013-06-13 04:30:00,
2013-06-12 23:35:00,65.7,63.0,29.69,North,359,2.7,3.6,92,0.00,,,1.41,0,TxWx,2013-06-13 04:35:00,
2013-06-12 23:40:00,65.8,63.0,29.70,NW,315,1.8,2.1,92,0.00,,,1.41,0,TxWx,2013-06-13 04:40:00,
2013-06-12 23:45:00,65.8,64.0,29.73,ESE,110,1.8,1.8,92,0.00,,,1.41,0,TxWx,2013-06-13 04:45:00,
2013-06-12 23:50:00,65.8,64.0,29.70,ENE,62,5.7,5.7,92,0.00,,,1.41,0,TxWx,2013-06-13 04:50:00,
2013-06-12 23:56:00,65.7,64.0,29.71,NE,37,3.6,3.9,92,0.00,,,1.41,0,TxWx,2013-06-13 04:56:00,